Time;durP1;ratioP1;P1;durP2;ratioP2;P2;SDS_P1;SDS_P2;PMS_P1;PMS_P2;Temp;Humidity;BMP_temperature;BMP_pressure;BME280_temperature;BME280_humidity;BME280_pressure;Samples;Min_cycle;Max_cycle;Signal;HPM_P1;HPM_P2
2021/07/07 00:00:42;;;;;;;5.82;2.50;;;;;;;17.23;68.23;101072.09;5073348;28;20044;-55
2021/07/07 00:03:10;;;;;;;8.32;2.80;;;;;;;17.15;68.58;101080.25;5072373;28;20094;-48
2021/07/07 00:05:38;;;;;;;6.32;2.60;;;;;;;17.12;69.23;101080.88;5072772;28;20036;-52
2021/07/07 00:08:05;;;;;;;6.53;2.45;;;;;;;17.13;68.61;101080.56;5072686;28;20530;-49
2021/07/07 00:10:34;;;;;;;5.95;2.50;;;;;;;17.13;68.66;101077.81;5071649;28;20115;-55
2021/07/07 00:13:03;;;;;;;4.18;2.25;;;;;;;17.15;69.04;101080.25;5072615;28;20067;-53
2021/07/07 00:15:32;;;;;;;6.15;2.65;;;;;;;17.18;68.89;101074.16;5072241;28;20086;-51
2021/07/07 00:18:02;;;;;;;5.55;2.53;;;;;;;17.18;68.48;101074.16;5072647;28;20045;-50
2021/07/07 00:20:37;;;;;;;8.38;2.95;;;;;;;17.16;68.63;101077.19;5072081;28;20384;-52
2021/07/07 00:23:05;;;;;;;4.68;2.35;;;;;;;17.12;68.60;101069.84;5058133;28;20040;-51
2021/07/07 00:25:33;;;;;;;6.47;2.28;;;;;;;17.07;68.92;101072.72;5072102;28;20526;-48
2021/07/07 00:28:00;;;;;;;7.38;2.70;;;;;;;17.03;68.69;101072.53;5072283;28;20036;-52
2021/07/07 00:30:29;;;;;;;6.07;2.40;;;;;;;16.98;68.81;101070.69;5072522;28;20052;-51
2021/07/07 00:32:57;;;;;;;6.63;2.08;;;;;;;16.94;69.36;101064.16;5054269;28;20044;-53
2021/07/07 00:35:25;;;;;;;3.03;1.88;;;;;;;16.93;69.27;101065.28;5072120;28;20403;-50
2021/07/07 00:37:53;;;;;;;7.82;2.92;;;;;;;16.92;69.72;101062.81;5071759;28;20055;-50
2021/07/07 00:40:20;;;;;;;6.90;2.33;;;;;;;16.92;69.16;101060.06;5071959;28;20044;-53
2021/07/07 00:42:48;;;;;;;5.03;2.28;;;;;;;16.87;69.42;101071.19;5072072;28;20044;-51
2021/07/07 00:45:16;;;;;;;6.55;2.80;;;;;;;16.87;69.24;101069.25;5071872;28;20080;-51
2021/07/07 00:47:46;;;;;;;7.45;2.70;;;;;;;16.86;69.04;101075.88;5072329;28;20149;-52
2021/07/07 00:50:16;;;;;;;5.35;2.67;;;;;;;16.88;69.13;101076.38;5053820;28;20040;-52
2021/07/07 00:52:44;;;;;;;6.95;2.65;;;;;;;16.88;69.33;101079.13;5074565;28;20096;-53
2021/07/07 00:55:14;;;;;;;5.72;2.58;;;;;;;16.88;69.41;101076.38;5060439;28;20040;-51
2021/07/07 00:57:44;;;;;;;6.90;2.50;;;;;;;16.87;69.15;101083.00;5078772;28;20043;-50
2021/07/07 01:00:15;;;;;;;7.60;2.63;;;;;;;16.84;68.96;101075.34;5078473;28;20132;-54
2021/07/07 01:02:44;;;;;;;6.20;2.22;;;;;;;16.83;69.34;101076.47;5078757;28;20036;-54
2021/07/07 01:05:14;;;;;;;5.18;2.28;;;;;;;16.80;69.31;101083.41;5078570;28;20406;-54
2021/07/07 01:07:42;;;;;;;8.18;2.33;;;;;;;16.79;69.31;101086.47;5077935;28;20487;-51
2021/07/07 01:10:12;;;;;;;5.25;2.42;;;;;;;16.79;69.43;101072.72;5044246;28;20048;-51
2021/07/07 01:12:40;;;;;;;6.65;2.20;;;;;;;16.77;69.07;101081.22;5078240;28;20425;-53
2021/07/07 01:15:13;;;;;;;5.95;2.40;;;;;;;16.77;69.48;101081.22;5078315;28;20397;-51
2021/07/07 01:17:40;;;;;;;6.10;2.42;;;;;;;16.80;69.18;101085.34;5078194;28;20037;-52
2021/07/07 01:20:14;;;;;;;6.53;2.45;;;;;;;16.80;68.99;101079.84;5078557;28;20394;-52
2021/07/07 01:22:42;;;;;;;6.78;2.40;;;;;;;16.83;68.72;101084.72;5060371;28;20048;-52
2021/07/07 01:25:12;;;;;;;5.35;2.20;;;;;;;16.81;68.56;101079.53;5060407;28;20094;-52
2021/07/07 01:27:41;;;;;;;4.05;2.33;;;;;;;16.76;68.76;101068.59;5078024;28;20052;-53
2021/07/07 01:30:13;;;;;;;7.47;2.63;;;;;;;16.73;68.80;101065.63;5078506;28;20029;-52
2021/07/07 01:32:41;;;;;;;4.80;2.20;;;;;;;16.72;69.10;101061.25;5078323;28;20063;-54
2021/07/07 01:35:10;;;;;;;6.43;2.40;;;;;;;16.71;68.89;101059.59;5078514;28;20380;-53
2021/07/07 01:37:38;;;;;;;7.32;2.33;;;;;;;16.71;69.21;101054.09;5078088;28;20050;-52
2021/07/07 01:40:06;;;;;;;5.82;2.30;;;;;;;16.75;69.10;101058.69;5078316;28;20036;-54
2021/07/07 01:42:34;;;;;;;5.35;2.60;;;;;;;16.78;68.49;101060.88;5078078;28;20048;-53
2021/07/07 01:45:03;;;;;;;7.07;2.63;;;;;;;16.78;68.34;101060.88;5077655;28;20620;-52
2021/07/07 01:47:31;;;;;;;6.22;2.13;;;;;;;16.75;68.58;101066.94;5078140;28;20045;-54
2021/07/07 01:50:00;;;;;;;3.92;2.10;;;;;;;16.76;68.46;101067.75;5078109;28;20111;-53
2021/07/07 01:52:27;;;;;;;5.72;2.15;;;;;;;16.73;68.44;101060.94;5077960;28;20040;-52
2021/07/07 01:54:55;;;;;;;6.72;2.40;;;;;;;16.67;68.39;101064.06;5078050;28;20402;-53
2021/07/07 01:57:23;;;;;;;4.28;2.00;;;;;;;16.58;68.70;101067.53;5076604;28;20040;-53
2021/07/07 01:59:51;;;;;;;4.55;2.33;;;;;;;16.59;68.98;101068.34;5078000;28;20040;-53
2021/07/07 02:02:18;;;;;;;7.47;2.38;;;;;;;16.61;68.69;101071.59;5060166;28;20051;-49
2021/07/07 02:04:46;;;;;;;7.22;2.25;;;;;;;16.59;68.60;101055.41;5057098;28;20044;-52
2021/07/07 02:07:14;;;;;;;4.30;2.10;;;;;;;16.55;68.73;101065.41;5074358;28;20068;-50
2021/07/07 02:09:42;;;;;;;5.93;2.53;;;;;;;16.50;68.60;101075.66;5073727;28;20052;-51
2021/07/07 02:12:09;;;;;;;5.50;2.40;;;;;;;16.41;68.97;101070.03;5074754;28;20047;-53
2021/07/07 02:14:37;;;;;;;6.35;2.15;;;;;;;16.35;69.70;101071.22;5074243;28;20048;-54
2021/07/07 02:17:04;;;;;;;6.68;2.30;;;;;;;16.31;69.90;101071.03;5057044;28;20033;-51
2021/07/07 02:19:32;;;;;;;7.47;2.35;;;;;;;16.28;69.81;101074.34;5074357;28;20063;-52
2021/07/07 02:22:00;;;;;;;6.72;2.30;;;;;;;16.29;69.66;101075.19;5074527;28;20120;-53
2021/07/07 02:24:27;;;;;;;7.43;2.80;;;;;;;16.33;70.08;101074.31;5074300;28;20499;-52
2021/07/07 02:26:55;;;;;;;8.88;2.78;;;;;;;16.35;69.86;101077.53;5074562;28;20039;-54
2021/07/07 02:29:22;;;;;;;6.25;2.70;;;;;;;16.39;69.66;101081.34;5074616;28;20064;-52
2021/07/07 02:31:50;;;;;;;5.63;2.60;;;;;;;16.42;69.53;101084.59;5073971;28;20502;-52
2021/07/07 02:34:17;;;;;;;5.95;2.70;;;;;;;16.41;69.33;101086.53;5074369;28;20078;-54
2021/07/07 02:36:45;;;;;;;4.78;2.35;;;;;;;16.37;69.36;101078.06;5074145;28;20037;-54
2021/07/07 02:39:12;;;;;;;4.75;2.63;;;;;;;16.39;69.67;101081.34;5074532;28;20033;-53
2021/07/07 02:41:40;;;;;;;6.72;2.90;;;;;;;16.41;69.72;101081.03;5073803;28;20438;-51
2021/07/07 02:44:07;;;;;;;5.20;2.42;;;;;;;16.41;69.49;101075.53;5073997;28;20055;-53
2021/07/07 02:46:35;;;;;;;8.48;3.03;;;;;;;16.42;69.37;101073.59;5056244;28;20052;-53
2021/07/07 02:49:03;;;;;;;5.80;2.50;;;;;;;16.38;69.51;101071.47;5073744;28;20480;-52
2021/07/07 02:51:30;;;;;;;8.05;2.88;;;;;;;16.36;69.46;101065.44;5074092;28;20044;-53
2021/07/07 02:53:58;;;;;;;7.70;3.50;;;;;;;16.35;70.03;101071.22;5074042;28;20037;-56
2021/07/07 02:56:25;;;;;;;4.80;3.20;;;;;;;16.35;69.99;101072.03;5055768;28;20517;-51
2021/07/07 02:58:53;;;;;;;7.57;2.80;;;;;;;16.34;70.01;101072.38;5073782;28;20043;-52
2021/07/07 03:01:21;;;;;;;8.10;3.08;;;;;;;16.35;69.73;101079.47;5065727;28;20037;-54
2021/07/07 03:03:48;;;;;;;8.27;3.22;;;;;;;16.31;69.93;101079.28;5073496;28;20051;-54
2021/07/07 03:06:16;;;;;;;5.97;2.80;;;;;;;16.27;69.93;101080.19;5073481;28;20040;-52
2021/07/07 03:08:44;;;;;;;8.18;3.15;;;;;;;16.23;70.53;101081.88;5073467;28;20068;-51
2021/07/07 03:11:11;;;;;;;8.20;2.90;;;;;;;16.22;70.51;101085.75;5073614;28;20055;-52
2021/07/07 03:13:39;;;;;;;8.80;3.17;;;;;;;16.23;70.49;101081.88;5073724;28;20486;-55
2021/07/07 03:16:07;;;;;;;8.57;3.10;;;;;;;16.27;70.69;101088.44;5072148;28;20412;-53
2021/07/07 03:18:35;;;;;;;6.28;3.10;;;;;;;16.25;70.24;101091.47;5073382;28;20040;-54
2021/07/07 03:21:04;;;;;;;7.95;3.03;;;;;;;16.19;70.29;101088.00;5055448;28;20435;-53
2021/07/07 03:23:31;;;;;;;7.85;3.05;;;;;;;16.16;70.61;101088.59;5073321;28;20406;-52
2021/07/07 03:25:59;;;;;;;8.90;2.90;;;;;;;16.13;70.92;101091.13;5073182;28;20063;-52
2021/07/07 03:28:26;;;;;;;9.32;3.22;;;;;;;16.15;70.58;101088.88;5073562;28;20487;-52
2021/07/07 03:30:54;;;;;;;7.18;3.13;;;;;;;16.19;70.69;101088.00;5073454;28;20410;-54
2021/07/07 03:33:22;;;;;;;6.68;3.08;;;;;;;16.24;70.56;101086.28;5072928;28;20098;-54
2021/07/07 03:35:49;;;;;;;7.78;3.10;;;;;;;16.23;70.38;101087.38;5055171;28;20052;-55
2021/07/07 03:38:17;;;;;;;7.07;3.30;;;;;;;16.25;70.10;101101.66;5072825;28;20041;-52
2021/07/07 03:40:45;;;;;;;11.63;3.40;;;;;;;16.24;70.73;101105.53;5073127;28;20041;-51
2021/07/07 03:43:12;;;;;;;6.90;3.20;;;;;;;16.23;70.56;101103.88;5073016;28;20044;-51
2021/07/07 03:45:40;;;;;;;10.18;3.50;;;;;;;16.23;70.18;101109.38;5072777;28;20048;-50
2021/07/07 03:48:09;;;;;;;6.15;3.33;;;;;;;16.22;70.34;101105.81;5072606;28;20044;-57
2021/07/07 03:50:38;;;;;;;5.75;2.95;;;;;;;16.23;70.70;101098.38;5073018;28;20376;-56
2021/07/07 03:53:07;;;;;;;7.55;3.30;;;;;;;16.23;70.50;101109.38;5072761;28;20072;-52
2021/07/07 03:55:35;;;;;;;8.95;3.15;;;;;;;16.24;69.96;101111.84;5072454;28;20049;-55
2021/07/07 03:58:02;;;;;;;6.18;3.03;;;;;;;16.24;70.33;101124.78;5072891;28;20036;-52
2021/07/07 04:00:31;;;;;;;6.75;3.20;;;;;;;16.21;70.27;101119.84;5072765;28;20052;-51
2021/07/07 04:02:59;;;;;;;7.03;3.17;;;;;;;16.17;70.47;101128.72;5072653;28;20049;-54
2021/07/07 04:05:27;;;;;;;9.18;3.75;;;;;;;16.13;70.26;101122.16;5071989;28;20132;-55
2021/07/07 04:07:55;;;;;;;7.38;3.10;;;;;;;16.09;70.50;101121.16;5072566;28;20040;-51
2021/07/07 04:10:23;;;;;;;9.45;3.67;;;;;;;16.07;70.80;101117.88;5072556;28;20041;-51
2021/07/07 04:12:51;;;;;;;6.07;3.00;;;;;;;16.11;70.68;101118.88;5072334;28;20082;-51
2021/07/07 04:15:20;;;;;;;9.85;3.30;;;;;;;16.15;70.56;101136.44;5072008;28;20048;-50
2021/07/07 04:17:48;;;;;;;9.90;3.38;;;;;;;16.16;70.18;101135.34;5072215;28;20051;-50
2021/07/07 04:20:18;;;;;;;11.10;3.17;;;;;;;16.14;69.92;101142.25;5072467;28;20044;-51
2021/07/07 04:22:47;;;;;;;9.60;3.10;;;;;;;16.11;70.34;101140.88;5072406;28;20055;-50
2021/07/07 04:25:15;;;;;;;9.45;3.95;;;;;;;16.06;70.36;101138.22;5072390;28;20044;-49
2021/07/07 04:27:44;;;;;;;11.27;3.70;;;;;;;16.03;70.41;101144.31;5071657;28;20522;-49
2021/07/07 04:30:16;;;;;;;9.38;2.95;;;;;;;16.01;70.55;101145.72;5072356;28;20457;-49
2021/07/07 04:32:44;;;;;;;8.13;3.15;;;;;;;16.03;70.76;101138.00;5072032;28;20044;-50
2021/07/07 04:35:13;;;;;;;8.13;3.20;;;;;;;16.08;70.59;101151.66;5072336;28;20483;-49
2021/07/07 04:37:40;;;;;;;7.47;3.45;;;;;;;16.15;70.86;101152.13;5071994;28;20522;-53
2021/07/07 04:40:10;;;;;;;12.60;3.40;;;;;;;16.18;70.41;101149.56;5054426;28;20048;-55
2021/07/07 04:42:37;;;;;;;8.00;3.50;;;;;;;16.22;70.00;101151.75;5072133;28;20123;-55
2021/07/07 04:45:07;;;;;;;10.35;3.55;;;;;;;16.22;70.03;101158.06;5071250;28;20045;-55
2021/07/07 04:47:35;;;;;;;9.40;3.25;;;;;;;16.21;70.39;101158.34;5071867;28;20111;-54
2021/07/07 04:50:07;;;;;;;8.65;3.30;;;;;;;16.19;70.28;101153.97;5054136;28;20052;-50
2021/07/07 04:52:36;;;;;;;8.68;3.45;;;;;;;16.18;70.04;101157.81;5072034;28;20047;-55
2021/07/07 04:55:08;;;;;;;11.25;3.63;;;;;;;16.11;70.63;101157.38;5071632;28;20048;-52
2021/07/07 04:57:41;;;;;;;8.57;3.30;;;;;;;16.03;71.07;101152.56;5071772;28;20407;-54
2021/07/07 05:00:14;;;;;;;10.48;3.28;;;;;;;16.01;70.98;101146.53;5071200;28;20205;-53
2021/07/07 05:02:43;;;;;;;10.35;3.17;;;;;;;15.98;71.32;101144.38;5072096;28;20545;-53
2021/07/07 05:05:13;;;;;;;9.05;3.55;;;;;;;15.94;71.47;101135.09;5071790;28;20109;-49
2021/07/07 05:07:41;;;;;;;10.73;3.55;;;;;;;15.97;71.99;101140.81;5053521;28;20044;-53
2021/07/07 05:10:10;;;;;;;7.32;3.17;;;;;;;16.06;71.77;101146.47;5071692;28;20059;-50
2021/07/07 05:12:39;;;;;;;8.23;3.22;;;;;;;16.16;71.30;101149.06;5071284;28;20402;-57
2021/07/07 05:15:08;;;;;;;9.20;3.42;;;;;;;16.27;71.50;101146.16;5053293;28;20060;-54
2021/07/07 05:17:36;;;;;;;7.95;3.38;;;;;;;16.35;71.04;101153.72;4733933;28;10000844;-54
2021/07/07 05:20:04;;;;;;;6.07;3.00;;;;;;;16.42;70.74;101156.91;5040434;28;20253;-57
2021/07/07 05:22:32;;;;;;;9.45;3.38;;;;;;;16.46;70.78;101157.97;5069456;28;20048;-54
2021/07/07 05:24:59;;;;;;;8.27;3.08;;;;;;;16.50;70.61;101153.50;5069000;28;20045;-53
2021/07/07 05:27:29;;;;;;;13.35;3.90;;;;;;;16.52;70.36;101162.25;5051094;28;20519;-56
2021/07/07 05:29:57;;;;;;;10.63;3.60;;;;;;;16.51;70.97;101160.63;5068911;28;20513;-52
2021/07/07 05:32:25;;;;;;;8.63;2.92;;;;;;;16.49;71.06;101165.59;5069330;28;20056;-55
2021/07/07 05:34:54;;;;;;;6.72;3.10;;;;;;;16.57;70.77;101167.69;5069276;28;20041;-52
2021/07/07 05:37:22;;;;;;;9.00;4.03;;;;;;;16.60;70.64;101167.09;5069275;28;20040;-56
2021/07/07 05:39:51;;;;;;;7.78;3.15;;;;;;;16.66;70.74;101178.81;5070484;28;20044;-54
2021/07/07 05:42:20;;;;;;;13.63;3.80;;;;;;;16.68;70.34;101175.78;5054496;28;20055;-52
2021/07/07 05:44:53;;;;;;;9.75;3.10;;;;;;;16.67;70.47;101174.13;5072437;28;20047;-54
2021/07/07 05:47:23;;;;;;;7.13;3.38;;;;;;;16.67;70.51;101166.72;5072796;28;20049;-52
2021/07/07 05:49:56;;;;;;;13.00;4.50;;;;;;;16.69;70.55;101171.91;5072833;28;20056;-53
2021/07/07 05:52:25;;;;;;;9.00;3.55;;;;;;;16.69;70.79;101174.66;5072640;28;20039;-51
2021/07/07 05:54:55;;;;;;;8.07;3.10;;;;;;;16.72;70.80;101179.56;5053865;28;20403;-53
2021/07/07 05:57:39;;;;;;;12.43;4.22;;;;;;;16.75;70.70;101182.53;5064394;28;20056;-51
2021/07/07 06:00:15;;;;;;;11.85;3.95;;;;;;;16.75;70.88;101187.22;5072725;28;20038;-48
2021/07/07 06:02:43;;;;;;;12.60;3.60;;;;;;;16.74;70.78;101185.56;5072367;28;20403;-52
2021/07/07 06:05:11;;;;;;;10.68;3.75;;;;;;;16.77;71.06;101190.50;5072082;28;20028;-53
2021/07/07 06:07:39;;;;;;;8.98;3.20;;;;;;;16.77;70.90;101199.56;5072183;28;20231;-50
2021/07/07 06:10:09;;;;;;;8.00;2.90;;;;;;;16.79;71.14;101199.28;5072555;28;20074;-54
2021/07/07 06:12:37;;;;;;;10.10;3.00;;;;;;;16.79;71.14;101199.28;5071931;28;20402;-50
2021/07/07 06:15:06;;;;;;;12.75;3.60;;;;;;;16.80;71.31;101195.41;5072340;28;20043;-52
2021/07/07 06:17:33;;;;;;;6.43;2.50;;;;;;;16.87;71.18;101200.53;5071920;28;20044;-50
2021/07/07 06:20:02;;;;;;;8.23;3.17;;;;;;;16.83;71.15;101200.31;5071968;28;20028;-51
2021/07/07 06:22:30;;;;;;;10.63;3.30;;;;;;;16.81;71.31;101205.28;5072251;28;20036;-52
2021/07/07 06:24:57;;;;;;;7.45;3.05;;;;;;;16.83;71.22;101200.31;5072265;28;20052;-52
2021/07/07 06:27:25;;;;;;;13.55;5.57;;;;;;;16.86;71.17;101207.97;5071598;28;20056;-49
2021/07/07 06:29:53;;;;;;;13.00;3.40;;;;;;;16.91;71.35;101207.91;5071871;28;20036;-51
2021/07/07 06:32:20;;;;;;;12.25;3.97;;;;;;;16.92;71.27;101208.72;5073509;28;20048;-51
2021/07/07 06:34:48;;;;;;;8.85;2.80;;;;;;;16.98;71.05;101213.81;5074138;28;20037;-52
2021/07/07 06:37:15;;;;;;;9.30;2.80;;;;;;;17.13;70.18;101211.94;5074146;28;20055;-51
2021/07/07 06:39:43;;;;;;;9.32;2.67;;;;;;;17.30;70.35;101219.59;5074321;28;20162;-51
2021/07/07 06:42:11;;;;;;;8.07;2.50;;;;;;;17.26;69.94;101224.88;5073631;28;20066;-58
2021/07/07 06:44:38;;;;;;;9.18;2.83;;;;;;;17.34;70.22;101215.09;5073909;28;20063;-55
2021/07/07 06:47:06;;;;;;;10.13;2.47;;;;;;;17.37;70.24;101220.84;5073814;28;20045;-53
2021/07/07 06:49:34;;;;;;;11.68;3.42;;;;;;;17.42;69.51;101217.97;5074155;28;20044;-53
2021/07/07 06:52:01;;;;;;;9.77;2.85;;;;;;;17.46;69.63;101224.53;5073647;28;20094;-52
2021/07/07 06:54:29;;;;;;;8.80;3.20;;;;;;;17.51;69.16;101217.25;5074039;28;20049;-56
2021/07/07 06:56:57;;;;;;;8.30;2.60;;;;;;;17.59;69.19;101225.66;5073521;28;20494;-56
2021/07/07 06:59:26;;;;;;;10.35;3.00;;;;;;;17.78;68.18;101216.47;5074145;28;20036;-56
2021/07/07 07:01:54;;;;;;;6.30;2.28;;;;;;;17.86;68.25;101216.56;5056306;28;20144;-55
2021/07/07 07:04:21;;;;;;;7.97;2.47;;;;;;;17.81;68.23;101227.72;5074178;28;20036;-55
2021/07/07 07:06:49;;;;;;;9.60;2.30;;;;;;;17.84;67.82;101224.34;5055541;28;20052;-53
2021/07/07 07:09:16;;;;;;;9.32;2.70;;;;;;;17.81;68.29;101230.47;5073437;28;20039;-53
2021/07/07 07:11:44;;;;;;;6.28;2.45;;;;;;;17.78;68.14;101231.06;5073424;28;20403;-53
2021/07/07 07:14:11;;;;;;;11.07;3.08;;;;;;;17.93;67.72;101231.91;5073429;28;20048;-53
2021/07/07 07:16:39;;;;;;;10.02;2.97;;;;;;;17.97;67.15;101238.44;5073697;28;20055;-54
2021/07/07 07:19:07;;;;;;;12.60;3.33;;;;;;;17.99;67.47;101247.19;5070690;28;20040;-52
2021/07/07 07:21:34;;;;;;;13.02;3.40;;;;;;;17.92;67.79;101250.41;5073170;28;20056;-51
2021/07/07 07:24:02;;;;;;;18.60;4.40;;;;;;;18.10;66.75;101251.38;5072538;28;20514;-52
2021/07/07 07:26:30;;;;;;;14.70;3.92;;;;;;;18.01;66.84;101262.31;5072588;28;20376;-49
2021/07/07 07:28:58;;;;;;;14.02;3.72;;;;;;;18.08;67.31;101261.91;5082564;28;20624;-51
2021/07/07 07:31:26;;;;;;;17.08;4.55;;;;;;;18.06;66.67;101265.00;5075900;28;20068;-53
2021/07/07 07:33:53;;;;;;;15.48;4.57;;;;;;;18.07;67.49;101260.28;5072527;28;20044;-52
2021/07/07 07:36:25;;;;;;;11.10;3.70;;;;;;;18.09;66.75;101269.88;5072614;28;20127;-52
2021/07/07 07:39:08;;;;;;;7.22;2.67;;;;;;;18.06;67.11;101266.91;5055157;28;20037;-48
2021/07/07 07:41:38;;;;;;;10.02;3.00;;;;;;;18.08;66.94;101270.19;5072364;28;20043;-53
2021/07/07 07:44:08;;;;;;;12.25;3.35;;;;;;;18.08;66.77;101268.22;5072344;28;20166;-55
2021/07/07 07:46:35;;;;;;;10.18;3.20;;;;;;;18.12;66.49;101273.16;5072581;28;20060;-55
2021/07/07 07:49:05;;;;;;;10.50;2.90;;;;;;;18.06;65.99;101272.41;5072252;28;20045;-54
2021/07/07 07:51:33;;;;;;;12.82;3.47;;;;;;;18.04;67.13;101271.94;5072596;28;20052;-50
2021/07/07 07:54:00;;;;;;;15.07;4.15;;;;;;;18.08;67.25;101273.75;5072196;28;20442;-51
2021/07/07 07:56:28;;;;;;;15.57;4.05;;;;;;;18.12;66.79;101262.94;5072076;28;20135;-57
2021/07/07 07:58:56;;;;;;;16.33;3.70;;;;;;;18.29;66.24;101263.09;5072785;28;20047;-51
2021/07/07 08:01:25;;;;;;;12.43;3.22;;;;;;;18.48;65.43;101267.66;5072050;28;20487;-55
2021/07/07 08:03:52;;;;;;;7.03;2.65;;;;;;;18.51;65.72;101275.31;5071985;28;20491;-54
2021/07/07 08:06:20;;;;;;;9.10;2.85;;;;;;;18.42;65.15;101268.91;5072317;28;20419;-51
2021/07/07 08:08:48;;;;;;;10.73;3.20;;;;;;;18.41;65.73;101270.84;5071768;28;20051;-53
2021/07/07 08:11:15;;;;;;;10.55;3.30;;;;;;;18.43;65.22;101274.13;5071989;28;20040;-55
2021/07/07 08:13:43;;;;;;;11.85;3.30;;;;;;;18.42;65.46;101272.47;5072440;28;20399;-52
2021/07/07 08:16:11;;;;;;;9.25;3.13;;;;;;;18.41;65.61;101270.84;5071902;28;20564;-53
2021/07/07 08:18:40;;;;;;;11.45;3.10;;;;;;;18.69;63.81;101268.84;5054092;28;20110;-52
2021/07/07 08:21:09;;;;;;;10.52;2.78;;;;;;;18.57;63.50;101274.09;5072538;28;20052;-51
2021/07/07 08:23:37;;;;;;;11.30;3.05;;;;;;;18.55;64.22;101281.03;5071830;28;20435;-53
2021/07/07 08:26:05;;;;;;;8.73;2.90;;;;;;;18.68;64.59;101283.75;5071584;28;20056;-52
2021/07/07 08:28:32;;;;;;;9.68;2.90;;;;;;;18.77;64.28;101272.00;5054122;28;20051;-52
2021/07/07 08:31:00;;;;;;;8.63;2.92;;;;;;;18.77;63.22;101277.53;5071832;28;20036;-54
2021/07/07 08:33:28;;;;;;;9.05;3.00;;;;;;;18.87;63.04;101280.84;5072333;28;20127;-52
2021/07/07 08:35:56;;;;;;;12.40;3.30;;;;;;;18.76;63.30;101281.38;5072164;28;20067;-51
2021/07/07 08:38:23;;;;;;;10.75;3.10;;;;;;;18.92;62.44;101279.91;5071355;28;20047;-52
2021/07/07 08:40:51;;;;;;;13.55;3.30;;;;;;;19.00;63.03;101281.09;5071709;28;20502;-53
2021/07/07 08:43:19;;;;;;;8.77;3.08;;;;;;;19.07;62.82;101281.47;5071938;28;20048;-52
2021/07/07 08:45:46;;;;;;;11.60;3.28;;;;;;;19.04;61.79;101291.22;5053834;28;20040;-55
2021/07/07 08:48:14;;;;;;;11.20;3.22;;;;;;;18.96;61.80;101283.69;5053856;28;20040;-56
2021/07/07 08:50:42;;;;;;;9.93;2.80;;;;;;;18.99;62.45;101285.00;5071967;28;20386;-56
2021/07/07 08:53:14;;;;;;;12.50;2.75;;;;;;;18.89;62.18;101278.59;5053355;28;20056;-53
2021/07/07 08:55:43;;;;;;;9.48;3.33;;;;;;;18.91;62.63;101290.16;5050499;28;20887;-51
2021/07/07 08:58:10;;;;;;;11.77;3.22;;;;;;;18.85;63.08;101293.34;5051493;28;20186;-51
2021/07/07 09:00:39;;;;;;;10.43;2.92;;;;;;;18.85;62.03;101293.34;5051765;28;20049;-53
2021/07/07 09:03:10;;;;;;;7.68;2.80;;;;;;;18.92;63.52;101294.53;5051594;28;20041;-51
2021/07/07 09:05:58;;;;;;;9.55;3.67;;;;;;;19.14;62.63;101293.72;5050987;28;20037;-55
2021/07/07 09:08:35;;;;;;;10.52;3.25;;;;;;;19.13;59.39;101297.63;5051537;28;20049;-53
2021/07/07 09:11:22;;;;;;;11.50;3.45;;;;;;;19.26;61.34;101295.09;5051171;28;20052;-52
2021/07/07 09:14:07;;;;;;;8.00;2.67;;;;;;;19.34;59.15;101308.16;5053116;28;20045;-51
2021/07/07 09:16:59;;;;;;;7.43;2.50;;;;;;;19.49;60.65;101309.72;5042265;28;20067;-51
2021/07/07 09:19:27;;;;;;;8.27;2.78;;;;;;;19.54;60.10;101315.09;5071882;28;20052;-52
2021/07/07 09:22:01;;;;;;;8.77;2.70;;;;;;;19.54;60.92;101313.16;5071338;28;20441;-52
2021/07/07 09:24:28;;;;;;;10.20;2.92;;;;;;;19.57;58.39;101317.22;5075391;28;20049;-52
2021/07/07 09:27:09;;;;;;;11.27;2.83;;;;;;;19.66;60.57;101309.00;4373254;28;9999933;-50
2021/07/07 09:29:52;;;;;;;10.45;3.15;;;;;;;19.70;58.98;101315.53;5073169;28;20506;-51
2021/07/07 09:32:27;;;;;;;10.02;2.90;;;;;;;19.74;59.79;101327.59;5073306;28;20048;-50
2021/07/07 09:35:04;;;;;;;11.65;3.33;;;;;;;19.79;57.80;101320.00;5073004;28;20135;-52
2021/07/07 09:37:36;;;;;;;7.05;2.80;;;;;;;19.81;57.70;101325.19;5073150;28;20056;-51
2021/07/07 09:40:07;;;;;;;7.20;2.60;;;;;;;19.82;59.77;101323.22;5072804;28;20127;-52
2021/07/07 09:42:37;;;;;;;8.45;2.83;;;;;;;19.77;58.80;101332.47;5073032;28;20055;-53
2021/07/07 09:45:09;;;;;;;8.70;2.60;;;;;;;19.78;61.39;101328.59;5072845;28;20050;-52
2021/07/07 09:47:38;;;;;;;10.60;3.58;;;;;;;19.74;59.88;101336.69;5072565;28;20082;-56
2021/07/07 09:50:08;;;;;;;8.23;3.00;;;;;;;19.71;58.56;101336.53;5063992;28;20052;-54
2021/07/07 09:52:36;;;;;;;10.18;3.78;;;;;;;19.71;61.48;101333.75;5073366;28;20098;-53
2021/07/07 09:55:08;;;;;;;11.75;3.53;;;;;;;19.78;59.48;101339.66;5065584;28;20048;-53
2021/07/07 09:57:46;;;;;;;3.78;1.60;;;;;;;19.77;61.84;101344.38;5073101;28;20066;-53
2021/07/07 10:00:24;;;;;;;12.95;2.75;;;;;;;19.82;57.43;101340.66;5074426;28;20072;-55
2021/07/07 10:02:53;;;;;;;8.75;3.00;;;;;;;19.77;57.36;101338.00;5074824;28;20047;-52
2021/07/07 10:05:22;;;;;;;9.85;3.08;;;;;;;19.78;58.60;101347.94;5065719;28;20376;-53
2021/07/07 10:07:50;;;;;;;7.68;3.00;;;;;;;19.81;59.74;101349.25;5053094;28;20450;-53
2021/07/07 10:10:21;;;;;;;7.13;2.90;;;;;;;19.81;58.56;101352.84;5074450;28;20045;-54
2021/07/07 10:12:49;;;;;;;10.63;2.80;;;;;;;19.90;60.46;101347.38;5053017;28;20029;-54
2021/07/07 10:15:18;;;;;;;8.48;2.63;;;;;;;19.89;58.11;101345.72;5055877;28;20048;-57
2021/07/07 10:17:46;;;;;;;7.35;2.60;;;;;;;19.96;61.78;101357.97;5073950;28;20119;-53
2021/07/07 10:20:14;;;;;;;10.82;3.60;;;;;;;19.96;58.31;101366.28;5074266;28;20036;-53
2021/07/07 10:22:43;;;;;;;8.65;3.05;;;;;;;19.90;61.86;101361.19;5074353;28;20467;-52
2021/07/07 10:25:15;;;;;;;7.65;2.80;;;;;;;20.02;60.41;101369.69;5053876;28;20037;-50
2021/07/07 10:27:45;;;;;;;8.18;2.65;;;;;;;20.04;58.09;101374.94;4745610;28;10000528;-53
2021/07/07 10:30:13;;;;;;;8.20;2.80;;;;;;;19.92;58.35;101381.06;5053536;28;20276;-55
2021/07/07 10:32:49;;;;;;;8.60;2.88;;;;;;;19.92;59.52;101373.56;5072085;28;20394;-54
2021/07/07 10:35:18;;;;;;;7.43;2.67;;;;;;;19.96;58.08;101368.19;5037438;28;20394;-52
2021/07/07 10:37:50;;;;;;;9.20;2.72;;;;;;;19.85;57.09;101377.94;5071488;28;20051;-53
2021/07/07 10:40:29;;;;;;;10.63;3.22;;;;;;;19.85;59.31;101381.50;5053176;28;20056;-53
2021/07/07 10:42:56;;;;;;;11.27;3.55;;;;;;;19.90;58.34;101381.34;5071944;28;20037;-53
2021/07/07 10:45:30;;;;;;;8.52;2.55;;;;;;;19.90;56.85;101381.34;5071636;28;20036;-56
2021/07/07 10:48:29;;;;;;;5.30;2.47;;;;;;;20.01;60.09;101376.34;5072039;28;20033;-56
2021/07/07 10:51:24;;;;;;;6.50;2.30;;;;;;;20.11;60.75;101383.59;5073401;28;20094;-56
2021/07/07 10:53:52;;;;;;;8.65;2.75;;;;;;;20.15;59.55;101381.78;5070029;28;20442;-54
2021/07/07 10:56:44;;;;;;;6.07;2.60;;;;;;;20.22;59.49;101382.16;5070795;28;20066;-55
2021/07/07 10:59:39;;;;;;;7.03;2.53;;;;;;;20.27;57.61;101378.41;5071627;28;20094;-55
2021/07/07 11:02:18;;;;;;;9.57;2.70;;;;;;;20.43;57.66;101382.38;5072052;28;20486;-55
2021/07/07 11:04:54;;;;;;;3.40;1.80;;;;;;;20.38;59.42;101386.13;5072431;28;20040;-54
2021/07/07 11:07:35;;;;;;;9.68;3.30;;;;;;;20.30;55.17;101391.63;5072283;28;20181;-55
2021/07/07 11:10:11;;;;;;;9.48;2.63;;;;;;;20.24;57.18;101390.13;5071724;28;20414;-53
2021/07/07 11:12:39;;;;;;;4.55;2.10;;;;;;;20.21;56.32;101397.94;5071488;28;20483;-54
2021/07/07 11:15:09;;;;;;;8.73;2.92;;;;;;;20.21;55.36;101395.16;5071000;28;20049;-51
2021/07/07 11:17:52;;;;;;;4.45;2.33;;;;;;;20.19;58.24;101394.66;5070052;28;20040;-51
2021/07/07 11:20:35;;;;;;;9.13;2.75;;;;;;;20.28;57.33;101397.47;5071186;28;20133;-51
2021/07/07 11:23:08;;;;;;;6.28;2.58;;;;;;;20.38;58.81;101399.97;5083869;28;20498;-55
2021/07/07 11:25:39;;;;;;;6.65;2.22;;;;;;;20.39;57.12;101403.53;5064031;28;20534;-52
2021/07/07 11:28:08;;;;;;;5.38;2.50;;;;;;;20.47;56.85;101407.47;5068270;28;20487;-54
2021/07/07 11:30:36;;;;;;;6.68;2.67;;;;;;;20.41;55.89;101412.34;5071302;28;20051;-52
2021/07/07 11:33:04;;;;;;;5.97;2.58;;;;;;;20.36;54.89;101405.00;5070578;28;20134;-55